sensor_id;sensor_type;location;lat;lon;timestamp;temperature;humidity
62424;DHT22;48463;43.604;3.872;2023-05-15T00:00:38;16.80;96.50
62424;DHT22;48463;43.604;3.872;2023-05-15T00:03:18;16.70;96.50
62424;DHT22;48463;43.604;3.872;2023-05-15T00:05:45;16.80;96.40
62424;DHT22;48463;43.604;3.872;2023-05-15T00:08:31;16.80;96.40
62424;DHT22;48463;43.604;3.872;2023-05-15T00:13:48;16.80;96.30
62424;DHT22;48463;43.604;3.872;2023-05-15T00:19:10;16.80;96.50
62424;DHT22;48463;43.604;3.872;2023-05-15T00:22:05;16.70;96.40
62424;DHT22;48463;43.604;3.872;2023-05-15T00:24:34;16.80;96.50
62424;DHT22;48463;43.604;3.872;2023-05-15T00:27:16;16.70;96.60
62424;DHT22;48463;43.604;3.872;2023-05-15T00:32:58;16.70;96.50
62424;DHT22;48463;43.604;3.872;2023-05-15T00:35:34;16.70;96.60
62424;DHT22;48463;43.604;3.872;2023-05-15T00:38:00;16.60;96.80
62424;DHT22;48463;43.604;3.872;2023-05-15T00:40:28;16.60;96.80
62424;DHT22;48463;43.604;3.872;2023-05-15T00:43:18;16.60;96.80
62424;DHT22;48463;43.604;3.872;2023-05-15T00:46:05;16.50;97.00
62424;DHT22;48463;43.604;3.872;2023-05-15T00:49:19;16.50;97.10
62424;DHT22;48463;43.604;3.872;2023-05-15T00:51:51;16.50;97.10
62424;DHT22;48463;43.604;3.872;2023-05-15T00:54:20;16.50;97.10
62424;DHT22;48463;43.604;3.872;2023-05-15T00:56:58;16.50;97.20
62424;DHT22;48463;43.604;3.872;2023-05-15T01:00:11;16.50;97.30
62424;DHT22;48463;43.604;3.872;2023-05-15T01:02:49;16.50;97.30
62424;DHT22;48463;43.604;3.872;2023-05-15T01:05:44;16.80;96.60
62424;DHT22;48463;43.604;3.872;2023-05-15T01:08:38;16.80;96.60
62424;DHT22;48463;43.604;3.872;2023-05-15T01:11:19;16.80;96.90
62424;DHT22;48463;43.604;3.872;2023-05-15T01:14:23;16.80;97.00
62424;DHT22;48463;43.604;3.872;2023-05-15T01:17:16;16.70;97.30
62424;DHT22;48463;43.604;3.872;2023-05-15T01:19:42;16.70;97.50
62424;DHT22;48463;43.604;3.872;2023-05-15T01:25:28;16.70;97.80
62424;DHT22;48463;43.604;3.872;2023-05-15T01:28:08;16.60;97.70
62424;DHT22;48463;43.604;3.872;2023-05-15T01:30:57;16.70;97.40
62424;DHT22;48463;43.604;3.872;2023-05-15T01:33:33;16.70;97.40
62424;DHT22;48463;43.604;3.872;2023-05-15T01:36:13;16.70;97.20
62424;DHT22;48463;43.604;3.872;2023-05-15T01:38:53;16.70;97.20
62424;DHT22;48463;43.604;3.872;2023-05-15T01:41:34;16.50;97.40
62424;DHT22;48463;43.604;3.872;2023-05-15T01:44:10;16.50;97.40
62424;DHT22;48463;43.604;3.872;2023-05-15T01:46:44;16.50;97.40
62424;DHT22;48463;43.604;3.872;2023-05-15T01:49:34;16.40;97.60
62424;DHT22;48463;43.604;3.872;2023-05-15T01:52:15;16.40;97.50
62424;DHT22;48463;43.604;3.872;2023-05-15T01:55:01;16.30;97.50
62424;DHT22;48463;43.604;3.872;2023-05-15T01:57:51;16.30;97.50
62424;DHT22;48463;43.604;3.872;2023-05-15T02:00:27;16.30;97.60
62424;DHT22;48463;43.604;3.872;2023-05-15T02:05:47;16.30;97.30
62424;DHT22;48463;43.604;3.872;2023-05-15T02:08:19;16.30;97.30
62424;DHT22;48463;43.604;3.872;2023-05-15T02:11:12;16.20;97.40
62424;DHT22;48463;43.604;3.872;2023-05-15T02:13:58;16.10;97.50
62424;DHT22;48463;43.604;3.872;2023-05-15T02:16:33;16.20;97.60
62424;DHT22;48463;43.604;3.872;2023-05-15T02:19:02;16.10;97.60
62424;DHT22;48463;43.604;3.872;2023-05-15T02:21:51;16.00;97.60
62424;DHT22;48463;43.604;3.872;2023-05-15T02:24:44;16.00;97.60
62424;DHT22;48463;43.604;3.872;2023-05-15T02:27:52;15.90;97.60
62424;DHT22;48463;43.604;3.872;2023-05-15T02:30:48;15.90;97.80
62424;DHT22;48463;43.604;3.872;2023-05-15T02:33:41;15.90;97.50
62424;DHT22;48463;43.604;3.872;2023-05-15T02:36:22;15.90;97.40
62424;DHT22;48463;43.604;3.872;2023-05-15T02:38:54;15.90;97.30
62424;DHT22;48463;43.604;3.872;2023-05-15T02:41:41;16.00;97.10
62424;DHT22;48463;43.604;3.872;2023-05-15T02:44:28;15.90;96.90
62424;DHT22;48463;43.604;3.872;2023-05-15T02:47:07;16.00;96.90
62424;DHT22;48463;43.604;3.872;2023-05-15T02:49:48;16.00;96.60
62424;DHT22;48463;43.604;3.872;2023-05-15T02:55:26;16.00;96.50
62424;DHT22;48463;43.604;3.872;2023-05-15T02:57:58;15.90;96.50
62424;DHT22;48463;43.604;3.872;2023-05-15T03:00:24;15.90;96.40
62424;DHT22;48463;43.604;3.872;2023-05-15T03:03:18;15.90;96.50
62424;DHT22;48463;43.604;3.872;2023-05-15T03:05:49;15.90;96.90
62424;DHT22;48463;43.604;3.872;2023-05-15T03:08:25;15.90;96.40
62424;DHT22;48463;43.604;3.872;2023-05-15T03:11:02;15.80;96.70
62424;DHT22;48463;43.604;3.872;2023-05-15T03:13:36;15.80;96.50
62424;DHT22;48463;43.604;3.872;2023-05-15T03:16:04;15.80;96.60
62424;DHT22;48463;43.604;3.872;2023-05-15T03:18:45;15.80;96.50
62424;DHT22;48463;43.604;3.872;2023-05-15T03:21:17;15.70;96.60
62424;DHT22;48463;43.604;3.872;2023-05-15T03:23:50;15.70;96.70
62424;DHT22;48463;43.604;3.872;2023-05-15T03:26:34;15.70;96.60
62424;DHT22;48463;43.604;3.872;2023-05-15T03:29:05;15.60;96.70
62424;DHT22;48463;43.604;3.872;2023-05-15T03:32:10;15.60;96.80
62424;DHT22;48463;43.604;3.872;2023-05-15T03:34:36;15.60;97.00
62424;DHT22;48463;43.604;3.872;2023-05-15T03:37:12;15.50;96.90
62424;DHT22;48463;43.604;3.872;2023-05-15T03:39:50;15.50;97.20
62424;DHT22;48463;43.604;3.872;2023-05-15T03:42:26;15.40;97.10
62424;DHT22;48463;43.604;3.872;2023-05-15T03:45:02;15.40;97.20
62424;DHT22;48463;43.604;3.872;2023-05-15T03:47:31;15.50;96.90
62424;DHT22;48463;43.604;3.872;2023-05-15T03:50:15;15.50;97.20
62424;DHT22;48463;43.604;3.872;2023-05-15T03:52:51;15.30;97.20
62424;DHT22;48463;43.604;3.872;2023-05-15T03:55:24;15.40;97.10
62424;DHT22;48463;43.604;3.872;2023-05-15T03:57:54;15.30;97.00
62424;DHT22;48463;43.604;3.872;2023-05-15T04:00:37;15.30;97.10
62424;DHT22;48463;43.604;3.872;2023-05-15T04:03:12;15.30;97.10
62424;DHT22;48463;43.604;3.872;2023-05-15T04:05:40;15.30;97.10
62424;DHT22;48463;43.604;3.872;2023-05-15T04:08:16;15.20;97.30
62424;DHT22;48463;43.604;3.872;2023-05-15T04:10:52;15.20;97.10
62424;DHT22;48463;43.604;3.872;2023-05-15T04:13:21;15.20;97.20
62424;DHT22;48463;43.604;3.872;2023-05-15T04:16:09;15.30;97.10
62424;DHT22;48463;43.604;3.872;2023-05-15T04:19:02;15.40;96.60
62424;DHT22;48463;43.604;3.872;2023-05-15T04:21:38;15.30;96.60
62424;DHT22;48463;43.604;3.872;2023-05-15T04:24:14;15.40;96.50
62424;DHT22;48463;43.604;3.872;2023-05-15T04:26:44;15.30;96.60
62424;DHT22;48463;43.604;3.872;2023-05-15T04:29:13;15.40;96.50
62424;DHT22;48463;43.604;3.872;2023-05-15T04:32:01;15.30;96.60
62424;DHT22;48463;43.604;3.872;2023-05-15T04:38:22;15.20;96.50
62424;DHT22;48463;43.604;3.872;2023-05-15T04:40:58;15.20;96.50
62424;DHT22;48463;43.604;3.872;2023-05-15T04:43:38;15.30;96.50
62424;DHT22;48463;43.604;3.872;2023-05-15T04:46:09;15.30;96.50
62424;DHT22;48463;43.604;3.872;2023-05-15T04:48:51;15.20;96.40
62424;DHT22;48463;43.604;3.872;2023-05-15T04:51:16;15.30;96.20
62424;DHT22;48463;43.604;3.872;2023-05-15T04:54:02;15.30;96.00
62424;DHT22;48463;43.604;3.872;2023-05-15T04:56:31;15.40;96.00
62424;DHT22;48463;43.604;3.872;2023-05-15T04:59:06;15.40;96.00
62424;DHT22;48463;43.604;3.872;2023-05-15T05:01:43;15.40;95.90
62424;DHT22;48463;43.604;3.872;2023-05-15T05:04:36;15.40;95.80
62424;DHT22;48463;43.604;3.872;2023-05-15T05:07:07;15.40;95.80
62424;DHT22;48463;43.604;3.872;2023-05-15T05:09:33;15.40;95.90
62424;DHT22;48463;43.604;3.872;2023-05-15T05:12:04;15.50;95.80
62424;DHT22;48463;43.604;3.872;2023-05-15T05:14:36;15.50;95.80
62424;DHT22;48463;43.604;3.872;2023-05-15T05:17:17;15.50;95.90
62424;DHT22;48463;43.604;3.872;2023-05-15T05:19:52;15.50;96.10
62424;DHT22;48463;43.604;3.872;2023-05-15T05:22:21;15.50;95.90
62424;DHT22;48463;43.604;3.872;2023-05-15T05:24:46;15.50;96.00
62424;DHT22;48463;43.604;3.872;2023-05-15T05:27:13;15.50;96.30
62424;DHT22;48463;43.604;3.872;2023-05-15T05:29:42;15.50;96.30
62424;DHT22;48463;43.604;3.872;2023-05-15T05:32:21;15.60;95.80
62424;DHT22;48463;43.604;3.872;2023-05-15T05:34:57;15.80;95.00
62424;DHT22;48463;43.604;3.872;2023-05-15T05:37:36;15.90;95.30
62424;DHT22;48463;43.604;3.872;2023-05-15T05:40:12;16.00;95.40
62424;DHT22;48463;43.604;3.872;2023-05-15T05:42:51;16.00;95.30
62424;DHT22;48463;43.604;3.872;2023-05-15T05:48:11;16.20;94.80
62424;DHT22;48463;43.604;3.872;2023-05-15T05:51:01;16.50;93.40
62424;DHT22;48463;43.604;3.872;2023-05-15T05:53:42;16.80;92.60
62424;DHT22;48463;43.604;3.872;2023-05-15T05:56:31;16.80;92.90
62424;DHT22;48463;43.604;3.872;2023-05-15T05:59:05;17.00;92.30
62424;DHT22;48463;43.604;3.872;2023-05-15T06:01:32;17.00;92.20
62424;DHT22;48463;43.604;3.872;2023-05-15T06:04:02;17.10;91.80
62424;DHT22;48463;43.604;3.872;2023-05-15T06:06:54;17.30;91.20
62424;DHT22;48463;43.604;3.872;2023-05-15T06:09:25;17.40;91.10
62424;DHT22;48463;43.604;3.872;2023-05-15T06:12:08;17.50;90.70
62424;DHT22;48463;43.604;3.872;2023-05-15T06:14:55;17.50;91.10
62424;DHT22;48463;43.604;3.872;2023-05-15T06:17:51;17.60;91.00
62424;DHT22;48463;43.604;3.872;2023-05-15T06:27:06;17.60;92.80
62424;DHT22;48463;43.604;3.872;2023-05-15T06:29:31;17.60;92.60
62424;DHT22;48463;43.604;3.872;2023-05-15T06:31:57;17.70;91.60
62424;DHT22;48463;43.604;3.872;2023-05-15T06:34:22;17.80;91.30
62424;DHT22;48463;43.604;3.872;2023-05-15T06:36:48;17.90;90.60
62424;DHT22;48463;43.604;3.872;2023-05-15T06:39:14;17.90;91.10
62424;DHT22;48463;43.604;3.872;2023-05-15T06:41:39;18.00;90.30
62424;DHT22;48463;43.604;3.872;2023-05-15T06:44:05;18.10;90.00
62424;DHT22;48463;43.604;3.872;2023-05-15T06:46:31;18.20;90.70
62424;DHT22;48463;43.604;3.872;2023-05-15T06:48:56;18.20;90.30
62424;DHT22;48463;43.604;3.872;2023-05-15T06:51:22;18.30;90.30
62424;DHT22;48463;43.604;3.872;2023-05-15T06:53:48;18.40;90.20
62424;DHT22;48463;43.604;3.872;2023-05-15T06:56:13;18.40;89.60
62424;DHT22;48463;43.604;3.872;2023-05-15T06:58:39;18.50;90.10
62424;DHT22;48463;43.604;3.872;2023-05-15T07:01:10;18.60;90.10
62424;DHT22;48463;43.604;3.872;2023-05-15T07:03:36;18.60;90.20
62424;DHT22;48463;43.604;3.872;2023-05-15T07:06:02;18.60;90.20
62424;DHT22;48463;43.604;3.872;2023-05-15T07:08:28;18.70;90.80
62424;DHT22;48463;43.604;3.872;2023-05-15T07:10:54;18.70;90.70
62424;DHT22;48463;43.604;3.872;2023-05-15T07:13:20;18.70;90.70
62424;DHT22;48463;43.604;3.872;2023-05-15T07:15:46;18.80;90.90
62424;DHT22;48463;43.604;3.872;2023-05-15T07:18:11;18.90;90.70
62424;DHT22;48463;43.604;3.872;2023-05-15T07:20:37;19.00;90.60
62424;DHT22;48463;43.604;3.872;2023-05-15T07:23:04;19.10;90.60
62424;DHT22;48463;43.604;3.872;2023-05-15T07:25:30;19.20;90.60
62424;DHT22;48463;43.604;3.872;2023-05-15T07:27:56;19.20;90.40
62424;DHT22;48463;43.604;3.872;2023-05-15T07:30:23;19.20;90.10
62424;DHT22;48463;43.604;3.872;2023-05-15T07:32:49;19.30;90.00
62424;DHT22;48463;43.604;3.872;2023-05-15T07:35:15;19.50;89.90
62424;DHT22;48463;43.604;3.872;2023-05-15T07:37:41;19.50;87.50
62424;DHT22;48463;43.604;3.872;2023-05-15T07:40:07;19.50;87.40
62424;DHT22;48463;43.604;3.872;2023-05-15T07:42:32;19.60;86.60
62424;DHT22;48463;43.604;3.872;2023-05-15T07:44:58;19.80;87.00
62424;DHT22;48463;43.604;3.872;2023-05-15T07:47:24;19.80;86.80
62424;DHT22;48463;43.604;3.872;2023-05-15T07:49:50;19.90;86.20
62424;DHT22;48463;43.604;3.872;2023-05-15T07:52:15;20.00;86.50
62424;DHT22;48463;43.604;3.872;2023-05-15T07:54:41;20.00;85.90
62424;DHT22;48463;43.604;3.872;2023-05-15T07:57:07;19.90;85.30
62424;DHT22;48463;43.604;3.872;2023-05-15T07:59:34;20.00;84.60
62424;DHT22;48463;43.604;3.872;2023-05-15T08:02:00;20.00;84.30
62424;DHT22;48463;43.604;3.872;2023-05-15T08:04:25;20.10;84.60
62424;DHT22;48463;43.604;3.872;2023-05-15T08:06:52;20.30;85.20
62424;DHT22;48463;43.604;3.872;2023-05-15T08:09:17;20.30;83.20
62424;DHT22;48463;43.604;3.872;2023-05-15T08:11:46;20.30;83.60
62424;DHT22;48463;43.604;3.872;2023-05-15T08:14:13;20.20;83.20
62424;DHT22;48463;43.604;3.872;2023-05-15T08:16:38;20.30;83.00
62424;DHT22;48463;43.604;3.872;2023-05-15T08:19:04;20.40;82.50
62424;DHT22;48463;43.604;3.872;2023-05-15T08:21:34;20.50;82.60
62424;DHT22;48463;43.604;3.872;2023-05-15T08:24:01;20.60;82.10
62424;DHT22;48463;43.604;3.872;2023-05-15T08:26:27;20.70;81.20
62424;DHT22;48463;43.604;3.872;2023-05-15T08:28:53;20.70;81.40
62424;DHT22;48463;43.604;3.872;2023-05-15T08:31:19;20.70;80.10
62424;DHT22;48463;43.604;3.872;2023-05-15T08:33:45;20.80;80.00
62424;DHT22;48463;43.604;3.872;2023-05-15T08:36:10;20.90;79.90
62424;DHT22;48463;43.604;3.872;2023-05-15T08:38:36;21.00;79.50
62424;DHT22;48463;43.604;3.872;2023-05-15T08:41:20;21.10;79.50
62424;DHT22;48463;43.604;3.872;2023-05-15T08:43:52;21.10;79.20
62424;DHT22;48463;43.604;3.872;2023-05-15T08:46:19;21.10;78.60
62424;DHT22;48463;43.604;3.872;2023-05-15T08:48:45;21.30;79.60
62424;DHT22;48463;43.604;3.872;2023-05-15T08:51:13;21.40;79.70
62424;DHT22;48463;43.604;3.872;2023-05-15T08:53:38;21.20;78.10
62424;DHT22;48463;43.604;3.872;2023-05-15T08:56:05;21.10;79.00
62424;DHT22;48463;43.604;3.872;2023-05-15T08:58:31;21.40;79.40
62424;DHT22;48463;43.604;3.872;2023-05-15T09:00:58;21.50;78.90
62424;DHT22;48463;43.604;3.872;2023-05-15T09:03:24;21.60;78.80
62424;DHT22;48463;43.604;3.872;2023-05-15T09:05:51;21.50;78.50
62424;DHT22;48463;43.604;3.872;2023-05-15T09:08:18;21.50;77.60
62424;DHT22;48463;43.604;3.872;2023-05-15T09:10:46;21.40;77.20
62424;DHT22;48463;43.604;3.872;2023-05-15T09:13:13;21.60;76.70
62424;DHT22;48463;43.604;3.872;2023-05-15T09:15:40;21.70;75.20
62424;DHT22;48463;43.604;3.872;2023-05-15T09:18:07;21.80;74.70
62424;DHT22;48463;43.604;3.872;2023-05-15T09:20:34;21.90;75.20
62424;DHT22;48463;43.604;3.872;2023-05-15T09:23:02;22.00;75.20
62424;DHT22;48463;43.604;3.872;2023-05-15T09:25:41;22.00;76.00
62424;DHT22;48463;43.604;3.872;2023-05-15T09:28:25;21.90;75.40
62424;DHT22;48463;43.604;3.872;2023-05-15T09:30:57;21.90;74.60
62424;DHT22;48463;43.604;3.872;2023-05-15T09:33:42;21.80;74.30
62424;DHT22;48463;43.604;3.872;2023-05-15T09:36:08;21.90;74.20
62424;DHT22;48463;43.604;3.872;2023-05-15T09:38:40;22.00;73.30
62424;DHT22;48463;43.604;3.872;2023-05-15T09:41:12;22.20;73.90
62424;DHT22;48463;43.604;3.872;2023-05-15T09:43:39;22.30;73.30
62424;DHT22;48463;43.604;3.872;2023-05-15T09:46:07;22.30;73.10
62424;DHT22;48463;43.604;3.872;2023-05-15T09:48:34;22.50;73.10
62424;DHT22;48463;43.604;3.872;2023-05-15T09:51:01;22.70;73.10
62424;DHT22;48463;43.604;3.872;2023-05-15T09:53:27;22.60;72.50
62424;DHT22;48463;43.604;3.872;2023-05-15T09:55:53;22.50;71.20
62424;DHT22;48463;43.604;3.872;2023-05-15T09:58:20;22.60;72.60
62424;DHT22;48463;43.604;3.872;2023-05-15T10:00:46;22.60;72.00
62424;DHT22;48463;43.604;3.872;2023-05-15T10:03:13;22.50;71.50
62424;DHT22;48463;43.604;3.872;2023-05-15T10:05:40;22.50;71.80
62424;DHT22;48463;43.604;3.872;2023-05-15T10:08:06;22.50;71.90
62424;DHT22;48463;43.604;3.872;2023-05-15T10:10:33;22.70;71.20
62424;DHT22;48463;43.604;3.872;2023-05-15T10:13:00;22.70;70.80
62424;DHT22;48463;43.604;3.872;2023-05-15T10:15:29;22.90;71.00
62424;DHT22;48463;43.604;3.872;2023-05-15T10:17:55;22.90;71.00
62424;DHT22;48463;43.604;3.872;2023-05-15T10:20:23;23.00;70.00
62424;DHT22;48463;43.604;3.872;2023-05-15T10:22:50;23.00;70.30
62424;DHT22;48463;43.604;3.872;2023-05-15T10:25:35;22.90;69.70
62424;DHT22;48463;43.604;3.872;2023-05-15T10:28:02;23.00;70.10
62424;DHT22;48463;43.604;3.872;2023-05-15T10:30:30;23.10;70.00
62424;DHT22;48463;43.604;3.872;2023-05-15T10:32:56;23.30;68.50
62424;DHT22;48463;43.604;3.872;2023-05-15T10:35:23;23.10;69.10
62424;DHT22;48463;43.604;3.872;2023-05-15T10:37:49;23.20;69.10
62424;DHT22;48463;43.604;3.872;2023-05-15T10:40:16;23.20;68.90
62424;DHT22;48463;43.604;3.872;2023-05-15T10:42:46;22.90;68.60
62424;DHT22;48463;43.604;3.872;2023-05-15T10:45:13;23.10;68.30
62424;DHT22;48463;43.604;3.872;2023-05-15T10:47:40;23.40;68.10
62424;DHT22;48463;43.604;3.872;2023-05-15T10:50:08;23.30;67.90
62424;DHT22;48463;43.604;3.872;2023-05-15T10:52:36;23.00;68.00
62424;DHT22;48463;43.604;3.872;2023-05-15T10:55:07;22.80;68.60
62424;DHT22;48463;43.604;3.872;2023-05-15T10:57:35;23.00;68.80
62424;DHT22;48463;43.604;3.872;2023-05-15T11:00:01;22.70;68.00
62424;DHT22;48463;43.604;3.872;2023-05-15T11:02:30;22.90;68.30
62424;DHT22;48463;43.604;3.872;2023-05-15T11:05:02;23.00;68.10
62424;DHT22;48463;43.604;3.872;2023-05-15T11:07:28;23.10;67.70
62424;DHT22;48463;43.604;3.872;2023-05-15T11:09:57;23.30;67.50
62424;DHT22;48463;43.604;3.872;2023-05-15T11:12:23;23.10;66.40
62424;DHT22;48463;43.604;3.872;2023-05-15T11:17:22;23.40;66.30
62424;DHT22;48463;43.604;3.872;2023-05-15T11:22:15;23.40;66.60
62424;DHT22;48463;43.604;3.872;2023-05-15T11:24:48;23.60;67.60
62424;DHT22;48463;43.604;3.872;2023-05-15T11:27:39;23.60;66.70
62424;DHT22;48463;43.604;3.872;2023-05-15T11:30:15;23.30;66.60
62424;DHT22;48463;43.604;3.872;2023-05-15T11:32:55;23.40;66.10
62424;DHT22;48463;43.604;3.872;2023-05-15T11:38:00;23.80;66.80
62424;DHT22;48463;43.604;3.872;2023-05-15T11:43:24;24.30;66.30
62424;DHT22;48463;43.604;3.872;2023-05-15T11:46:11;24.20;65.20
62424;DHT22;48463;43.604;3.872;2023-05-15T11:48:42;24.10;63.90
62424;DHT22;48463;43.604;3.872;2023-05-15T11:51:24;24.30;65.70
62424;DHT22;48463;43.604;3.872;2023-05-15T11:53:53;24.30;65.20
62424;DHT22;48463;43.604;3.872;2023-05-15T11:56:29;24.40;65.90
62424;DHT22;48463;43.604;3.872;2023-05-15T11:58:57;24.50;65.00
62424;DHT22;48463;43.604;3.872;2023-05-15T12:01:23;24.20;64.60
62424;DHT22;48463;43.604;3.872;2023-05-15T12:03:49;24.40;64.70
62424;DHT22;48463;43.604;3.872;2023-05-15T12:06:15;24.40;63.80
62424;DHT22;48463;43.604;3.872;2023-05-15T12:08:41;24.70;63.60
62424;DHT22;48463;43.604;3.872;2023-05-15T12:11:07;24.60;64.10
62424;DHT22;48463;43.604;3.872;2023-05-15T12:13:34;23.80;64.10
62424;DHT22;48463;43.604;3.872;2023-05-15T12:16:01;23.80;64.70
62424;DHT22;48463;43.604;3.872;2023-05-15T12:18:29;24.40;65.00
62424;DHT22;48463;43.604;3.872;2023-05-15T12:20:55;24.40;63.40
62424;DHT22;48463;43.604;3.872;2023-05-15T12:23:23;24.40;64.40
62424;DHT22;48463;43.604;3.872;2023-05-15T12:25:52;24.10;64.50
62424;DHT22;48463;43.604;3.872;2023-05-15T12:28:22;24.30;63.80
62424;DHT22;48463;43.604;3.872;2023-05-15T12:30:48;24.40;64.20
62424;DHT22;48463;43.604;3.872;2023-05-15T12:33:15;24.20;64.20
62424;DHT22;48463;43.604;3.872;2023-05-15T12:35:50;24.00;64.20
62424;DHT22;48463;43.604;3.872;2023-05-15T12:38:17;24.00;64.30
62424;DHT22;48463;43.604;3.872;2023-05-15T12:40:44;24.50;64.70
62424;DHT22;48463;43.604;3.872;2023-05-15T12:43:12;24.70;63.70
62424;DHT22;48463;43.604;3.872;2023-05-15T12:45:39;24.70;63.60
62424;DHT22;48463;43.604;3.872;2023-05-15T12:48:07;25.10;63.70
62424;DHT22;48463;43.604;3.872;2023-05-15T12:50:46;25.00;63.40
62424;DHT22;48463;43.604;3.872;2023-05-15T12:53:14;25.30;63.20
62424;DHT22;48463;43.604;3.872;2023-05-15T12:55:51;25.20;63.20
62424;DHT22;48463;43.604;3.872;2023-05-15T12:58:17;25.10;62.80
62424;DHT22;48463;43.604;3.872;2023-05-15T13:00:44;25.40;63.80
62424;DHT22;48463;43.604;3.872;2023-05-15T13:03:13;25.10;62.50
62424;DHT22;48463;43.604;3.872;2023-05-15T13:05:42;25.20;63.10
62424;DHT22;48463;43.604;3.872;2023-05-15T13:08:08;25.00;62.70
62424;DHT22;48463;43.604;3.872;2023-05-15T13:10:35;25.30;62.80
62424;DHT22;48463;43.604;3.872;2023-05-15T13:13:01;25.40;62.20
62424;DHT22;48463;43.604;3.872;2023-05-15T13:15:30;25.00;62.60
62424;DHT22;48463;43.604;3.872;2023-05-15T13:23:08;24.70;62.90
62424;DHT22;48463;43.604;3.872;2023-05-15T13:25:34;24.50;63.90
62424;DHT22;48463;43.604;3.872;2023-05-15T13:28:02;24.90;64.20
62424;DHT22;48463;43.604;3.872;2023-05-15T13:30:28;25.30;63.70
62424;DHT22;48463;43.604;3.872;2023-05-15T13:32:54;25.40;62.70
62424;DHT22;48463;43.604;3.872;2023-05-15T13:35:20;25.20;62.40
62424;DHT22;48463;43.604;3.872;2023-05-15T13:37:46;25.50;62.10
62424;DHT22;48463;43.604;3.872;2023-05-15T13:40:12;25.90;61.70
62424;DHT22;48463;43.604;3.872;2023-05-15T13:42:39;25.90;61.90
62424;DHT22;48463;43.604;3.872;2023-05-15T13:45:07;25.90;62.00
62424;DHT22;48463;43.604;3.872;2023-05-15T13:47:33;25.70;61.40
62424;DHT22;48463;43.604;3.872;2023-05-15T13:49:58;25.90;61.30
62424;DHT22;48463;43.604;3.872;2023-05-15T13:52:25;26.30;61.70
62424;DHT22;48463;43.604;3.872;2023-05-15T13:54:51;25.80;61.60
62424;DHT22;48463;43.604;3.872;2023-05-15T13:57:17;25.90;60.70
62424;DHT22;48463;43.604;3.872;2023-05-15T13:59:43;25.80;60.60
62424;DHT22;48463;43.604;3.872;2023-05-15T14:02:08;25.80;60.80
62424;DHT22;48463;43.604;3.872;2023-05-15T14:04:34;25.20;61.40
62424;DHT22;48463;43.604;3.872;2023-05-15T14:07:00;25.30;61.70
62424;DHT22;48463;43.604;3.872;2023-05-15T14:09:26;25.40;61.40
62424;DHT22;48463;43.604;3.872;2023-05-15T14:11:51;25.50;61.50
62424;DHT22;48463;43.604;3.872;2023-05-15T14:14:17;26.00;61.90
62424;DHT22;48463;43.604;3.872;2023-05-15T14:16:43;26.30;61.60
62424;DHT22;48463;43.604;3.872;2023-05-15T14:19:10;26.20;60.80
62424;DHT22;48463;43.604;3.872;2023-05-15T14:21:38;26.30;61.10
62424;DHT22;48463;43.604;3.872;2023-05-15T14:24:05;26.20;60.40
62424;DHT22;48463;43.604;3.872;2023-05-15T14:26:31;26.40;60.40
62424;DHT22;48463;43.604;3.872;2023-05-15T14:28:57;25.90;60.10
62424;DHT22;48463;43.604;3.872;2023-05-15T14:31:32;25.40;59.70
62424;DHT22;48463;43.604;3.872;2023-05-15T14:33:58;25.80;60.50
62424;DHT22;48463;43.604;3.872;2023-05-15T14:36:25;26.10;60.20
62424;DHT22;48463;43.604;3.872;2023-05-15T14:38:50;26.20;60.00
62424;DHT22;48463;43.604;3.872;2023-05-15T14:41:16;26.50;60.20
62424;DHT22;48463;43.604;3.872;2023-05-15T14:43:42;25.70;60.10
62424;DHT22;48463;43.604;3.872;2023-05-15T14:46:07;25.80;60.40
62424;DHT22;48463;43.604;3.872;2023-05-15T14:48:37;25.60;60.30
62424;DHT22;48463;43.604;3.872;2023-05-15T14:51:05;27.30;61.20
62424;DHT22;48463;43.604;3.872;2023-05-15T14:53:30;30.00;59.60
62424;DHT22;48463;43.604;3.872;2023-05-15T14:55:58;30.80;56.80
62424;DHT22;48463;43.604;3.872;2023-05-15T14:58:24;32.00;56.90
62424;DHT22;48463;43.604;3.872;2023-05-15T15:00:50;33.00;55.10
62424;DHT22;48463;43.604;3.872;2023-05-15T15:03:16;32.30;55.70
62424;DHT22;48463;43.604;3.872;2023-05-15T15:05:45;32.20;53.00
62424;DHT22;48463;43.604;3.872;2023-05-15T15:08:10;32.50;53.60
62424;DHT22;48463;43.604;3.872;2023-05-15T15:10:38;33.30;52.90
62424;DHT22;48463;43.604;3.872;2023-05-15T15:13:05;29.80;53.70
62424;DHT22;48463;43.604;3.872;2023-05-15T15:15:33;28.90;55.40
62424;DHT22;48463;43.604;3.872;2023-05-15T15:17:59;28.00;56.40
62424;DHT22;48463;43.604;3.872;2023-05-15T15:20:26;27.80;56.40
62424;DHT22;48463;43.604;3.872;2023-05-15T15:22:53;26.90;57.90
62424;DHT22;48463;43.604;3.872;2023-05-15T15:25:20;26.70;58.40
62424;DHT22;48463;43.604;3.872;2023-05-15T15:27:48;25.70;57.60
62424;DHT22;48463;43.604;3.872;2023-05-15T15:30:15;25.70;58.60
62424;DHT22;48463;43.604;3.872;2023-05-15T15:32:43;26.00;58.90
62424;DHT22;48463;43.604;3.872;2023-05-15T15:35:11;25.70;59.10
62424;DHT22;48463;43.604;3.872;2023-05-15T15:37:38;25.60;59.10
62424;DHT22;48463;43.604;3.872;2023-05-15T15:40:07;26.10;59.60
62424;DHT22;48463;43.604;3.872;2023-05-15T15:42:35;25.40;59.30
62424;DHT22;48463;43.604;3.872;2023-05-15T15:45:04;25.00;59.70
62424;DHT22;48463;43.604;3.872;2023-05-15T15:47:30;25.60;60.20
62424;DHT22;48463;43.604;3.872;2023-05-15T15:49:58;26.30;59.60
62424;DHT22;48463;43.604;3.872;2023-05-15T15:52:25;26.40;58.60
62424;DHT22;48463;43.604;3.872;2023-05-15T15:54:52;25.70;58.70
62424;DHT22;48463;43.604;3.872;2023-05-15T15:57:21;26.00;58.80
62424;DHT22;48463;43.604;3.872;2023-05-15T15:59:47;26.00;58.20
62424;DHT22;48463;43.604;3.872;2023-05-15T16:02:15;26.10;58.40
62424;DHT22;48463;43.604;3.872;2023-05-15T16:04:42;25.70;59.30
62424;DHT22;48463;43.604;3.872;2023-05-15T16:07:07;26.00;59.20
62424;DHT22;48463;43.604;3.872;2023-05-15T16:09:33;26.10;59.20
62424;DHT22;48463;43.604;3.872;2023-05-15T16:11:59;26.10;58.70
62424;DHT22;48463;43.604;3.872;2023-05-15T16:14:26;26.20;59.00
62424;DHT22;48463;43.604;3.872;2023-05-15T16:16:52;26.60;59.70
62424;DHT22;48463;43.604;3.872;2023-05-15T16:19:18;26.40;58.50
62424;DHT22;48463;43.604;3.872;2023-05-15T16:21:44;26.30;58.50
62424;DHT22;48463;43.604;3.872;2023-05-15T16:24:10;26.10;58.10
62424;DHT22;48463;43.604;3.872;2023-05-15T16:26:36;25.50;57.60
62424;DHT22;48463;43.604;3.872;2023-05-15T16:29:02;25.50;58.30
62424;DHT22;48463;43.604;3.872;2023-05-15T16:31:29;25.10;58.30
62424;DHT22;48463;43.604;3.872;2023-05-15T16:33:56;25.90;58.60
62424;DHT22;48463;43.604;3.872;2023-05-15T16:36:23;25.90;58.00
62424;DHT22;48463;43.604;3.872;2023-05-15T16:38:49;26.10;57.60
62424;DHT22;48463;43.604;3.872;2023-05-15T16:41:15;26.00;57.50
62424;DHT22;48463;43.604;3.872;2023-05-15T16:43:41;25.70;57.90